Strona główna
METAR-TAF:

METAR-TAF

Lotnisko :

Pocono Mountains Municipal Airport

Mount Pocono, Pensylwania, Stany Zjednoczone

Szerokość geograficzna: 41-08-20N, Długość geograficzna: 075-23-46W, wysokość: 584 m

Aktualna obserwacja pogody

Raport powstał 52 minut temu, godzina 14:12 UTC
Wiatr 6 kt od południowo-południowy wschód w porywach dochodzący do 17 kt
Temperatura 14°C
Wilgotność 82%
Ciśnienie 1024 hPa
Widzialność: 16.1 km
Przerywane chmury na wysokości 1500 ft
Zachmurzenie całkowite na wysokości 5500 ft

METAR: KMPO 251412Z AUTO 16006G17KT 10SM BKN015 OVC055 14/11 A3023 RMK AO2 T01390106

czas: 11:04 (15:04 UTC)


TAF: brakujący

Obserwacja i prognoza pogody dla ponad 4000 lotnisk (raport METAR i TAF).

Dostępne stacje oznaczono żółtymi i czerwonymi punktami na mapie.

Najedź kursorem aby zobaczyć nazwę stacji.

Kliknij aby zobaczyć obserwacje i prognozy pogody.

Aby zmienić mapę: kliknij na zielony przycisk z czarnym krzyżykiem, aby powiększyć; na zielony przycisk z myślnikiem, aby pomniejszyć; na zielone strzałki, aby przejść do map sąsiednich.


METAR-TAF: